sensor_id;sensor_type;location;lat;lon;timestamp;P1;durP1;ratioP1;P2;durP2;ratioP2
14778;SDS011;7481;53.750;10.570;2022-10-18T00:02:24;14.77;;;10.37;;
14778;SDS011;7481;53.750;10.570;2022-10-18T00:05:11;13.50;;;9.30;;
14778;SDS011;7481;53.750;10.570;2022-10-18T00:07:58;15.90;;;10.77;;
14778;SDS011;7481;53.750;10.570;2022-10-18T00:10:45;15.33;;;10.40;;
14778;SDS011;7481;53.750;10.570;2022-10-18T00:13:32;18.93;;;11.13;;
14778;SDS011;7481;53.750;10.570;2022-10-18T00:16:18;14.73;;;9.90;;
14778;SDS011;7481;53.750;10.570;2022-10-18T00:19:05;19.07;;;11.23;;
14778;SDS011;7481;53.750;10.570;2022-10-18T00:21:52;18.80;;;11.07;;
14778;SDS011;7481;53.750;10.570;2022-10-18T00:24:39;21.63;;;11.53;;
14778;SDS011;7481;53.750;10.570;2022-10-18T00:27:30;16.27;;;12.27;;
14778;SDS011;7481;53.750;10.570;2022-10-18T00:30:17;16.83;;;11.87;;
14778;SDS011;7481;53.750;10.570;2022-10-18T00:33:04;18.50;;;12.27;;
14778;SDS011;7481;53.750;10.570;2022-10-18T00:35:51;19.03;;;12.03;;
14778;SDS011;7481;53.750;10.570;2022-10-18T00:38:38;23.17;;;13.00;;
14778;SDS011;7481;53.750;10.570;2022-10-18T00:41:28;22.53;;;13.73;;
14778;SDS011;7481;53.750;10.570;2022-10-18T00:47:05;21.37;;;13.20;;
14778;SDS011;7481;53.750;10.570;2022-10-18T00:49:55;17.33;;;12.80;;
14778;SDS011;7481;53.750;10.570;2022-10-18T00:52:54;19.83;;;13.17;;
14778;SDS011;7481;53.750;10.570;2022-10-18T00:55:44;19.83;;;13.17;;
14778;SDS011;7481;53.750;10.570;2022-10-18T00:58:31;21.33;;;13.47;;
14778;SDS011;7481;53.750;10.570;2022-10-18T01:01:19;21.03;;;14.17;;
14778;SDS011;7481;53.750;10.570;2022-10-18T01:04:13;24.33;;;15.07;;
14778;SDS011;7481;53.750;10.570;2022-10-18T01:10:23;24.10;;;15.30;;
14778;SDS011;7481;53.750;10.570;2022-10-18T01:16:17;21.83;;;14.27;;
14778;SDS011;7481;53.750;10.570;2022-10-18T01:19:20;22.83;;;15.63;;
14778;SDS011;7481;53.750;10.570;2022-10-18T01:22:36;24.70;;;15.10;;
14778;SDS011;7481;53.750;10.570;2022-10-18T01:25:39;27.93;;;15.17;;
14778;SDS011;7481;53.750;10.570;2022-10-18T01:31:38;30.23;;;16.70;;
14778;SDS011;7481;53.750;10.570;2022-10-18T01:34:32;26.63;;;16.97;;
14778;SDS011;7481;53.750;10.570;2022-10-18T01:37:21;22.27;;;15.00;;
14778;SDS011;7481;53.750;10.570;2022-10-18T01:40:09;24.20;;;14.83;;
14778;SDS011;7481;53.750;10.570;2022-10-18T01:42:59;24.97;;;15.13;;
14778;SDS011;7481;53.750;10.570;2022-10-18T01:45:48;20.77;;;14.63;;
14778;SDS011;7481;53.750;10.570;2022-10-18T01:48:36;24.47;;;15.73;;
14778;SDS011;7481;53.750;10.570;2022-10-18T01:51:26;25.67;;;15.03;;
14778;SDS011;7481;53.750;10.570;2022-10-18T01:54:20;30.17;;;15.83;;
14778;SDS011;7481;53.750;10.570;2022-10-18T01:57:27;24.37;;;16.70;;
14778;SDS011;7481;53.750;10.570;2022-10-18T02:00:22;28.10;;;16.80;;
14778;SDS011;7481;53.750;10.570;2022-10-18T02:03:21;28.67;;;17.37;;
14778;SDS011;7481;53.750;10.570;2022-10-18T02:09:08;26.60;;;15.67;;
14778;SDS011;7481;53.750;10.570;2022-10-18T02:11:59;25.80;;;15.70;;
14778;SDS011;7481;53.750;10.570;2022-10-18T02:14:48;29.93;;;16.43;;
14778;SDS011;7481;53.750;10.570;2022-10-18T02:17:35;29.60;;;15.53;;
14778;SDS011;7481;53.750;10.570;2022-10-18T02:20:25;32.37;;;16.67;;
14778;SDS011;7481;53.750;10.570;2022-10-18T02:23:15;29.67;;;16.07;;
14778;SDS011;7481;53.750;10.570;2022-10-18T02:26:04;25.50;;;15.53;;
14778;SDS011;7481;53.750;10.570;2022-10-18T02:28:52;27.53;;;16.03;;
14778;SDS011;7481;53.750;10.570;2022-10-18T02:31:42;30.40;;;18.17;;
14778;SDS011;7481;53.750;10.570;2022-10-18T02:34:34;28.50;;;16.63;;
14778;SDS011;7481;53.750;10.570;2022-10-18T02:37:27;28.57;;;17.33;;
14778;SDS011;7481;53.750;10.570;2022-10-18T02:40:20;27.43;;;16.43;;
14778;SDS011;7481;53.750;10.570;2022-10-18T02:43:07;30.13;;;18.00;;
14778;SDS011;7481;53.750;10.570;2022-10-18T02:45:54;30.80;;;18.20;;
14778;SDS011;7481;53.750;10.570;2022-10-18T02:48:41;31.63;;;18.47;;
14778;SDS011;7481;53.750;10.570;2022-10-18T02:51:28;37.13;;;18.50;;
14778;SDS011;7481;53.750;10.570;2022-10-18T02:54:15;29.13;;;17.97;;
14778;SDS011;7481;53.750;10.570;2022-10-18T02:57:02;30.40;;;18.80;;
14778;SDS011;7481;53.750;10.570;2022-10-18T02:59:49;30.33;;;17.57;;
14778;SDS011;7481;53.750;10.570;2022-10-18T03:02:36;29.23;;;17.03;;
14778;SDS011;7481;53.750;10.570;2022-10-18T03:05:23;30.20;;;17.33;;
14778;SDS011;7481;53.750;10.570;2022-10-18T03:08:10;32.10;;;19.43;;
14778;SDS011;7481;53.750;10.570;2022-10-18T03:10:57;32.20;;;17.80;;
14778;SDS011;7481;53.750;10.570;2022-10-18T03:13:44;28.90;;;17.20;;
14778;SDS011;7481;53.750;10.570;2022-10-18T03:16:31;28.40;;;17.67;;
14778;SDS011;7481;53.750;10.570;2022-10-18T03:19:19;31.63;;;17.77;;
14778;SDS011;7481;53.750;10.570;2022-10-18T03:22:06;28.53;;;18.13;;
14778;SDS011;7481;53.750;10.570;2022-10-18T03:24:53;27.27;;;17.80;;
14778;SDS011;7481;53.750;10.570;2022-10-18T03:27:40;30.03;;;17.87;;
14778;SDS011;7481;53.750;10.570;2022-10-18T03:30:27;31.07;;;17.83;;
14778;SDS011;7481;53.750;10.570;2022-10-18T03:33:14;27.23;;;17.07;;
14778;SDS011;7481;53.750;10.570;2022-10-18T03:36:01;25.90;;;16.17;;
14778;SDS011;7481;53.750;10.570;2022-10-18T03:38:48;27.87;;;18.03;;
14778;SDS011;7481;53.750;10.570;2022-10-18T03:41:35;25.60;;;16.50;;
14778;SDS011;7481;53.750;10.570;2022-10-18T03:44:21;34.13;;;18.07;;
14778;SDS011;7481;53.750;10.570;2022-10-18T03:47:08;28.97;;;18.53;;
14778;SDS011;7481;53.750;10.570;2022-10-18T03:49:55;29.53;;;17.90;;
14778;SDS011;7481;53.750;10.570;2022-10-18T03:52:43;33.40;;;18.40;;
14778;SDS011;7481;53.750;10.570;2022-10-18T03:55:29;30.50;;;18.20;;
14778;SDS011;7481;53.750;10.570;2022-10-18T03:58:17;26.57;;;16.87;;
14778;SDS011;7481;53.750;10.570;2022-10-18T04:01:04;25.17;;;16.53;;
14778;SDS011;7481;53.750;10.570;2022-10-18T04:03:52;29.73;;;17.90;;
14778;SDS011;7481;53.750;10.570;2022-10-18T04:06:39;24.30;;;15.17;;
14778;SDS011;7481;53.750;10.570;2022-10-18T04:09:26;27.73;;;15.03;;
14778;SDS011;7481;53.750;10.570;2022-10-18T04:12:13;22.83;;;14.73;;
14778;SDS011;7481;53.750;10.570;2022-10-18T04:15:00;23.30;;;14.17;;
14778;SDS011;7481;53.750;10.570;2022-10-18T04:17:47;26.03;;;15.90;;
14778;SDS011;7481;53.750;10.570;2022-10-18T04:20:34;34.17;;;18.23;;
14778;SDS011;7481;53.750;10.570;2022-10-18T04:23:21;32.07;;;17.37;;
14778;SDS011;7481;53.750;10.570;2022-10-18T04:26:08;33.23;;;18.20;;
14778;SDS011;7481;53.750;10.570;2022-10-18T04:28:55;26.17;;;18.50;;
14778;SDS011;7481;53.750;10.570;2022-10-18T04:31:42;28.57;;;18.23;;
14778;SDS011;7481;53.750;10.570;2022-10-18T04:34:29;34.37;;;17.93;;
14778;SDS011;7481;53.750;10.570;2022-10-18T04:37:16;30.60;;;18.73;;
14778;SDS011;7481;53.750;10.570;2022-10-18T04:40:03;33.33;;;20.03;;
14778;SDS011;7481;53.750;10.570;2022-10-18T04:42:50;32.93;;;19.10;;
14778;SDS011;7481;53.750;10.570;2022-10-18T04:45:37;38.83;;;19.47;;
14778;SDS011;7481;53.750;10.570;2022-10-18T04:48:24;32.20;;;19.83;;
14778;SDS011;7481;53.750;10.570;2022-10-18T04:51:12;32.10;;;17.30;;
14778;SDS011;7481;53.750;10.570;2022-10-18T04:53:59;33.60;;;20.20;;
14778;SDS011;7481;53.750;10.570;2022-10-18T04:56:46;36.67;;;18.30;;
14778;SDS011;7481;53.750;10.570;2022-10-18T04:59:32;33.00;;;19.80;;
14778;SDS011;7481;53.750;10.570;2022-10-18T05:02:19;33.87;;;17.70;;
14778;SDS011;7481;53.750;10.570;2022-10-18T05:05:06;31.10;;;19.27;;
14778;SDS011;7481;53.750;10.570;2022-10-18T05:07:59;31.03;;;17.73;;
14778;SDS011;7481;53.750;10.570;2022-10-18T05:10:46;34.90;;;18.30;;
14778;SDS011;7481;53.750;10.570;2022-10-18T05:13:33;29.80;;;17.67;;
14778;SDS011;7481;53.750;10.570;2022-10-18T05:16:20;35.33;;;18.67;;
14778;SDS011;7481;53.750;10.570;2022-10-18T05:19:07;36.53;;;20.03;;
14778;SDS011;7481;53.750;10.570;2022-10-18T05:21:54;34.37;;;19.50;;
14778;SDS011;7481;53.750;10.570;2022-10-18T05:24:41;33.50;;;20.13;;
14778;SDS011;7481;53.750;10.570;2022-10-18T05:27:28;39.97;;;19.87;;
14778;SDS011;7481;53.750;10.570;2022-10-18T05:30:15;40.73;;;21.20;;
14778;SDS011;7481;53.750;10.570;2022-10-18T05:33:02;41.67;;;20.87;;
14778;SDS011;7481;53.750;10.570;2022-10-18T05:35:50;38.90;;;21.27;;
14778;SDS011;7481;53.750;10.570;2022-10-18T05:38:37;38.73;;;20.10;;
14778;SDS011;7481;53.750;10.570;2022-10-18T05:41:28;40.47;;;20.80;;
14778;SDS011;7481;53.750;10.570;2022-10-18T05:44:15;39.37;;;21.53;;
14778;SDS011;7481;53.750;10.570;2022-10-18T05:47:02;40.47;;;22.17;;
14778;SDS011;7481;53.750;10.570;2022-10-18T05:49:49;38.37;;;20.83;;
14778;SDS011;7481;53.750;10.570;2022-10-18T05:52:36;46.27;;;24.27;;
14778;SDS011;7481;53.750;10.570;2022-10-18T05:55:23;45.43;;;23.53;;
14778;SDS011;7481;53.750;10.570;2022-10-18T05:58:10;41.30;;;22.57;;
14778;SDS011;7481;53.750;10.570;2022-10-18T06:01:01;43.23;;;23.70;;
14778;SDS011;7481;53.750;10.570;2022-10-18T06:03:49;46.27;;;23.87;;
14778;SDS011;7481;53.750;10.570;2022-10-18T06:06:36;42.47;;;23.13;;
14778;SDS011;7481;53.750;10.570;2022-10-18T06:09:23;36.90;;;22.57;;
14778;SDS011;7481;53.750;10.570;2022-10-18T06:12:11;41.67;;;21.17;;
14778;SDS011;7481;53.750;10.570;2022-10-18T06:14:58;41.93;;;21.43;;
14778;SDS011;7481;53.750;10.570;2022-10-18T06:17:45;34.60;;;19.70;;
14778;SDS011;7481;53.750;10.570;2022-10-18T06:20:32;41.20;;;20.03;;
14778;SDS011;7481;53.750;10.570;2022-10-18T06:23:19;39.43;;;19.83;;
14778;SDS011;7481;53.750;10.570;2022-10-18T06:26:06;39.40;;;20.40;;
14778;SDS011;7481;53.750;10.570;2022-10-18T06:28:55;40.40;;;19.80;;
14778;SDS011;7481;53.750;10.570;2022-10-18T06:31:42;35.63;;;20.50;;
14778;SDS011;7481;53.750;10.570;2022-10-18T06:34:29;38.07;;;18.37;;
14778;SDS011;7481;53.750;10.570;2022-10-18T06:37:17;37.23;;;19.43;;
14778;SDS011;7481;53.750;10.570;2022-10-18T06:40:04;37.40;;;18.43;;
14778;SDS011;7481;53.750;10.570;2022-10-18T06:42:51;30.67;;;17.83;;
14778;SDS011;7481;53.750;10.570;2022-10-18T06:45:46;35.13;;;16.57;;
14778;SDS011;7481;53.750;10.570;2022-10-18T06:48:34;29.60;;;16.40;;
14778;SDS011;7481;53.750;10.570;2022-10-18T06:51:21;31.10;;;15.80;;
14778;SDS011;7481;53.750;10.570;2022-10-18T06:54:08;29.40;;;15.83;;
14778;SDS011;7481;53.750;10.570;2022-10-18T06:57:04;30.70;;;15.10;;
14778;SDS011;7481;53.750;10.570;2022-10-18T06:59:51;26.60;;;14.73;;
14778;SDS011;7481;53.750;10.570;2022-10-18T07:02:38;28.70;;;15.23;;
14778;SDS011;7481;53.750;10.570;2022-10-18T07:05:26;33.37;;;16.67;;
14778;SDS011;7481;53.750;10.570;2022-10-18T07:08:13;31.87;;;15.77;;
14778;SDS011;7481;53.750;10.570;2022-10-18T07:11:00;29.67;;;15.33;;
14778;SDS011;7481;53.750;10.570;2022-10-18T07:13:48;28.90;;;15.57;;
14778;SDS011;7481;53.750;10.570;2022-10-18T07:16:35;26.17;;;14.93;;
14778;SDS011;7481;53.750;10.570;2022-10-18T07:19:22;24.30;;;15.40;;
14778;SDS011;7481;53.750;10.570;2022-10-18T07:22:09;26.47;;;14.13;;
14778;SDS011;7481;53.750;10.570;2022-10-18T07:24:56;24.63;;;16.27;;
14778;SDS011;7481;53.750;10.570;2022-10-18T07:27:43;28.53;;;14.27;;
14778;SDS011;7481;53.750;10.570;2022-10-18T07:30:30;24.43;;;13.90;;
14778;SDS011;7481;53.750;10.570;2022-10-18T07:33:17;26.23;;;15.87;;
14778;SDS011;7481;53.750;10.570;2022-10-18T07:36:06;30.87;;;15.17;;
14778;SDS011;7481;53.750;10.570;2022-10-18T07:38:54;29.70;;;14.87;;
14778;SDS011;7481;53.750;10.570;2022-10-18T07:41:41;33.37;;;14.50;;
14778;SDS011;7481;53.750;10.570;2022-10-18T07:44:28;20.73;;;13.70;;
14778;SDS011;7481;53.750;10.570;2022-10-18T07:47:15;26.83;;;13.67;;
14778;SDS011;7481;53.750;10.570;2022-10-18T07:50:02;25.83;;;13.53;;
14778;SDS011;7481;53.750;10.570;2022-10-18T07:52:49;23.53;;;12.97;;
14778;SDS011;7481;53.750;10.570;2022-10-18T07:55:36;25.00;;;14.13;;
14778;SDS011;7481;53.750;10.570;2022-10-18T07:58:23;25.83;;;13.63;;
14778;SDS011;7481;53.750;10.570;2022-10-18T08:01:11;24.60;;;13.17;;
14778;SDS011;7481;53.750;10.570;2022-10-18T08:03:58;23.57;;;13.57;;
14778;SDS011;7481;53.750;10.570;2022-10-18T08:06:52;22.57;;;13.27;;
14778;SDS011;7481;53.750;10.570;2022-10-18T08:09:39;26.63;;;13.70;;
14778;SDS011;7481;53.750;10.570;2022-10-18T08:12:27;27.70;;;14.27;;
14778;SDS011;7481;53.750;10.570;2022-10-18T08:15:14;23.53;;;13.37;;
14778;SDS011;7481;53.750;10.570;2022-10-18T08:18:01;23.33;;;13.67;;
14778;SDS011;7481;53.750;10.570;2022-10-18T08:20:48;27.27;;;13.03;;
14778;SDS011;7481;53.750;10.570;2022-10-18T08:23:35;26.70;;;13.43;;
14778;SDS011;7481;53.750;10.570;2022-10-18T08:26:22;26.37;;;13.83;;
14778;SDS011;7481;53.750;10.570;2022-10-18T08:29:09;23.13;;;13.33;;
14778;SDS011;7481;53.750;10.570;2022-10-18T08:32:10;27.27;;;13.70;;
14778;SDS011;7481;53.750;10.570;2022-10-18T08:34:58;23.00;;;11.80;;
14778;SDS011;7481;53.750;10.570;2022-10-18T08:37:46;25.47;;;13.43;;
14778;SDS011;7481;53.750;10.570;2022-10-18T08:40:33;22.80;;;12.70;;
14778;SDS011;7481;53.750;10.570;2022-10-18T08:46:10;19.17;;;11.67;;
14778;SDS011;7481;53.750;10.570;2022-10-18T08:48:58;27.53;;;13.90;;
14778;SDS011;7481;53.750;10.570;2022-10-18T08:51:47;22.33;;;11.47;;
14778;SDS011;7481;53.750;10.570;2022-10-18T08:54:37;23.40;;;11.60;;
14778;SDS011;7481;53.750;10.570;2022-10-18T08:57:39;20.57;;;12.67;;
14778;SDS011;7481;53.750;10.570;2022-10-18T09:00:27;27.67;;;15.57;;
14778;SDS011;7481;53.750;10.570;2022-10-18T09:10:05;23.27;;;15.13;;
14778;SDS011;7481;53.750;10.570;2022-10-18T09:16:15;23.87;;;15.40;;
14778;SDS011;7481;53.750;10.570;2022-10-18T09:22:06;27.40;;;15.67;;
14778;SDS011;7481;53.750;10.570;2022-10-18T09:28:18;25.70;;;15.40;;
14778;SDS011;7481;53.750;10.570;2022-10-18T09:34:25;25.70;;;15.10;;
14778;SDS011;7481;53.750;10.570;2022-10-18T09:37:25;23.07;;;15.27;;
14778;SDS011;7481;53.750;10.570;2022-10-18T09:40:23;24.47;;;15.40;;
14778;SDS011;7481;53.750;10.570;2022-10-18T09:43:15;26.67;;;15.33;;
14778;SDS011;7481;53.750;10.570;2022-10-18T09:46:12;22.57;;;13.43;;
14778;SDS011;7481;53.750;10.570;2022-10-18T09:49:02;20.88;;;11.75;;
14778;SDS011;7481;53.750;10.570;2022-10-18T09:51:52;15.38;;;10.75;;
14778;SDS011;7481;53.750;10.570;2022-10-18T09:54:59;13.98;;;10.02;;
14778;SDS011;7481;53.750;10.570;2022-10-18T09:57:54;15.13;;;10.30;;
14778;SDS011;7481;53.750;10.570;2022-10-18T10:00:46;18.95;;;10.70;;
14778;SDS011;7481;53.750;10.570;2022-10-18T10:03:35;14.85;;;8.85;;
14778;SDS011;7481;53.750;10.570;2022-10-18T10:06:26;12.10;;;8.68;;
14778;SDS011;7481;53.750;10.570;2022-10-18T10:09:16;15.02;;;8.68;;
14778;SDS011;7481;53.750;10.570;2022-10-18T10:12:21;14.65;;;8.07;;
14778;SDS011;7481;53.750;10.570;2022-10-18T10:18:20;11.75;;;7.50;;
14778;SDS011;7481;53.750;10.570;2022-10-18T10:21:13;12.02;;;7.35;;
14778;SDS011;7481;53.750;10.570;2022-10-18T10:24:01;15.35;;;7.22;;
14778;SDS011;7481;53.750;10.570;2022-10-18T10:26:49;10.32;;;6.03;;
14778;SDS011;7481;53.750;10.570;2022-10-18T10:32:46;12.20;;;5.85;;
14778;SDS011;7481;53.750;10.570;2022-10-18T10:35:38;11.23;;;5.82;;
14778;SDS011;7481;53.750;10.570;2022-10-18T10:38:42;10.95;;;5.43;;
14778;SDS011;7481;53.750;10.570;2022-10-18T10:41:28;8.77;;;4.50;;
14778;SDS011;7481;53.750;10.570;2022-10-18T10:44:21;11.23;;;4.82;;
14778;SDS011;7481;53.750;10.570;2022-10-18T10:47:24;11.80;;;5.28;;
14778;SDS011;7481;53.750;10.570;2022-10-18T10:50:24;9.00;;;4.93;;
14778;SDS011;7481;53.750;10.570;2022-10-18T10:53:25;8.55;;;4.40;;
14778;SDS011;7481;53.750;10.570;2022-10-18T10:56:17;10.52;;;4.95;;
14778;SDS011;7481;53.750;10.570;2022-10-18T10:59:15;10.73;;;4.80;;
14778;SDS011;7481;53.750;10.570;2022-10-18T11:05:21;12.20;;;5.03;;
14778;SDS011;7481;53.750;10.570;2022-10-18T11:08:12;8.70;;;4.90;;
14778;SDS011;7481;53.750;10.570;2022-10-18T11:11:20;9.70;;;4.97;;
14778;SDS011;7481;53.750;10.570;2022-10-18T11:14:18;12.45;;;5.80;;
14778;SDS011;7481;53.750;10.570;2022-10-18T11:20:23;11.32;;;4.97;;
14778;SDS011;7481;53.750;10.570;2022-10-18T11:23:16;11.10;;;4.80;;
14778;SDS011;7481;53.750;10.570;2022-10-18T11:40:52;11.93;;;5.72;;
14778;SDS011;7481;53.750;10.570;2022-10-18T11:44:06;11.45;;;4.88;;
14778;SDS011;7481;53.750;10.570;2022-10-18T11:47:12;12.77;;;5.45;;
14778;SDS011;7481;53.750;10.570;2022-10-18T11:50:04;10.23;;;5.32;;
14778;SDS011;7481;53.750;10.570;2022-10-18T11:59:37;11.02;;;5.38;;
14778;SDS011;7481;53.750;10.570;2022-10-18T12:05:46;11.93;;;5.60;;
14778;SDS011;7481;53.750;10.570;2022-10-18T12:08:36;14.35;;;5.45;;
14778;SDS011;7481;53.750;10.570;2022-10-18T12:11:31;9.40;;;4.88;;
14778;SDS011;7481;53.750;10.570;2022-10-18T12:20:36;12.13;;;4.53;;
14778;SDS011;7481;53.750;10.570;2022-10-18T12:26:15;7.50;;;3.33;;
14778;SDS011;7481;53.750;10.570;2022-10-18T12:32:15;10.07;;;3.40;;
14778;SDS011;7481;53.750;10.570;2022-10-18T12:35:10;12.05;;;3.45;;
14778;SDS011;7481;53.750;10.570;2022-10-18T12:38:15;8.55;;;3.10;;
14778;SDS011;7481;53.750;10.570;2022-10-18T12:41:11;9.73;;;3.25;;
14778;SDS011;7481;53.750;10.570;2022-10-18T12:44:21;9.02;;;3.35;;
14778;SDS011;7481;53.750;10.570;2022-10-18T12:47:21;5.07;;;2.87;;
14778;SDS011;7481;53.750;10.570;2022-10-18T12:50:22;8.02;;;2.95;;
14778;SDS011;7481;53.750;10.570;2022-10-18T12:53:25;5.77;;;3.00;;
14778;SDS011;7481;53.750;10.570;2022-10-18T13:04:50;9.10;;;3.30;;
14778;SDS011;7481;53.750;10.570;2022-10-18T13:07:38;6.57;;;2.35;;
14778;SDS011;7481;53.750;10.570;2022-10-18T13:10:32;6.73;;;2.40;;
14778;SDS011;7481;53.750;10.570;2022-10-18T13:13:23;5.67;;;2.50;;
14778;SDS011;7481;53.750;10.570;2022-10-18T13:44:32;8.80;;;2.53;;
14778;SDS011;7481;53.750;10.570;2022-10-18T13:47:31;12.47;;;3.20;;
14778;SDS011;7481;53.750;10.570;2022-10-18T13:50:25;10.30;;;2.73;;
14778;SDS011;7481;53.750;10.570;2022-10-18T13:53:24;10.77;;;2.50;;
14778;SDS011;7481;53.750;10.570;2022-10-18T13:59:36;7.75;;;2.10;;
14778;SDS011;7481;53.750;10.570;2022-10-18T14:08:54;6.83;;;2.37;;
14778;SDS011;7481;53.750;10.570;2022-10-18T14:15:36;7.70;;;2.20;;
14778;SDS011;7481;53.750;10.570;2022-10-18T14:18:29;9.60;;;2.40;;
14778;SDS011;7481;53.750;10.570;2022-10-18T14:21:20;11.20;;;2.90;;
14778;SDS011;7481;53.750;10.570;2022-10-18T14:24:23;7.60;;;2.53;;
14778;SDS011;7481;53.750;10.570;2022-10-18T14:33:00;9.53;;;2.27;;
14778;SDS011;7481;53.750;10.570;2022-10-18T14:35:56;9.00;;;2.90;;
14778;SDS011;7481;53.750;10.570;2022-10-18T14:38:55;9.93;;;2.20;;
14778;SDS011;7481;53.750;10.570;2022-10-18T14:41:50;9.77;;;2.43;;
14778;SDS011;7481;53.750;10.570;2022-10-18T14:44:39;9.57;;;2.63;;
14778;SDS011;7481;53.750;10.570;2022-10-18T14:47:26;8.97;;;2.57;;
14778;SDS011;7481;53.750;10.570;2022-10-18T14:50:20;5.67;;;2.20;;
14778;SDS011;7481;53.750;10.570;2022-10-18T14:53:12;8.00;;;2.53;;
14778;SDS011;7481;53.750;10.570;2022-10-18T14:56:03;6.80;;;2.33;;
14778;SDS011;7481;53.750;10.570;2022-10-18T14:58:51;10.40;;;2.10;;
14778;SDS011;7481;53.750;10.570;2022-10-18T15:01:41;13.00;;;2.37;;
14778;SDS011;7481;53.750;10.570;2022-10-18T15:04:55;9.70;;;2.43;;
14778;SDS011;7481;53.750;10.570;2022-10-18T15:07:51;7.23;;;2.03;;
14778;SDS011;7481;53.750;10.570;2022-10-18T15:10:39;7.77;;;2.87;;
14778;SDS011;7481;53.750;10.570;2022-10-18T15:13:26;15.87;;;2.93;;
14778;SDS011;7481;53.750;10.570;2022-10-18T15:16:18;9.67;;;2.40;;
14778;SDS011;7481;53.750;10.570;2022-10-18T15:22:05;9.30;;;2.17;;
14778;SDS011;7481;53.750;10.570;2022-10-18T15:25:14;11.60;;;2.37;;
14778;SDS011;7481;53.750;10.570;2022-10-18T15:28:01;6.80;;;2.13;;
14778;SDS011;7481;53.750;10.570;2022-10-18T15:30:48;7.97;;;2.10;;
14778;SDS011;7481;53.750;10.570;2022-10-18T15:33:35;5.93;;;1.80;;
14778;SDS011;7481;53.750;10.570;2022-10-18T15:36:27;10.00;;;1.93;;
14778;SDS011;7481;53.750;10.570;2022-10-18T15:42:57;6.40;;;1.90;;
14778;SDS011;7481;53.750;10.570;2022-10-18T15:51:01;6.20;;;2.00;;
14778;SDS011;7481;53.750;10.570;2022-10-18T15:53:51;14.67;;;2.50;;
14778;SDS011;7481;53.750;10.570;2022-10-18T15:56:39;11.70;;;2.40;;
14778;SDS011;7481;53.750;10.570;2022-10-18T15:59:27;7.53;;;2.30;;
14778;SDS011;7481;53.750;10.570;2022-10-18T16:02:16;9.87;;;2.13;;
14778;SDS011;7481;53.750;10.570;2022-10-18T16:05:03;7.53;;;2.00;;
14778;SDS011;7481;53.750;10.570;2022-10-18T16:07:51;8.53;;;2.27;;
14778;SDS011;7481;53.750;10.570;2022-10-18T16:10:38;6.30;;;2.17;;
14778;SDS011;7481;53.750;10.570;2022-10-18T16:13:25;6.07;;;2.20;;
14778;SDS011;7481;53.750;10.570;2022-10-18T16:16:13;6.87;;;2.07;;
14778;SDS011;7481;53.750;10.570;2022-10-18T16:19:03;6.97;;;2.50;;
14778;SDS011;7481;53.750;10.570;2022-10-18T16:21:50;7.47;;;2.13;;
14778;SDS011;7481;53.750;10.570;2022-10-18T16:24:39;6.93;;;2.17;;
14778;SDS011;7481;53.750;10.570;2022-10-18T16:27:26;7.83;;;2.27;;
14778;SDS011;7481;53.750;10.570;2022-10-18T16:30:13;6.90;;;1.77;;
14778;SDS011;7481;53.750;10.570;2022-10-18T16:33:03;8.83;;;2.17;;
14778;SDS011;7481;53.750;10.570;2022-10-18T16:35:52;6.53;;;2.17;;
14778;SDS011;7481;53.750;10.570;2022-10-18T16:38:39;9.50;;;1.73;;
14778;SDS011;7481;53.750;10.570;2022-10-18T16:41:26;6.70;;;2.47;;
14778;SDS011;7481;53.750;10.570;2022-10-18T16:44:14;8.07;;;2.10;;
14778;SDS011;7481;53.750;10.570;2022-10-18T16:47:02;8.63;;;2.40;;
14778;SDS011;7481;53.750;10.570;2022-10-18T16:49:49;7.27;;;2.03;;
14778;SDS011;7481;53.750;10.570;2022-10-18T16:52:36;12.57;;;2.50;;
14778;SDS011;7481;53.750;10.570;2022-10-18T16:55:22;11.40;;;2.33;;
14778;SDS011;7481;53.750;10.570;2022-10-18T16:58:13;6.80;;;2.20;;
14778;SDS011;7481;53.750;10.570;2022-10-18T17:01:03;8.90;;;2.27;;
14778;SDS011;7481;53.750;10.570;2022-10-18T17:03:54;7.00;;;2.40;;
14778;SDS011;7481;53.750;10.570;2022-10-18T17:06:41;11.97;;;2.57;;
14778;SDS011;7481;53.750;10.570;2022-10-18T17:09:28;7.93;;;2.23;;
14778;SDS011;7481;53.750;10.570;2022-10-18T17:12:15;5.07;;;2.10;;
14778;SDS011;7481;53.750;10.570;2022-10-18T17:15:02;5.23;;;1.63;;
14778;SDS011;7481;53.750;10.570;2022-10-18T17:17:49;3.77;;;1.80;;
14778;SDS011;7481;53.750;10.570;2022-10-18T17:20:36;5.57;;;1.50;;
14778;SDS011;7481;53.750;10.570;2022-10-18T17:23:24;5.77;;;1.80;;
14778;SDS011;7481;53.750;10.570;2022-10-18T17:26:15;7.17;;;1.93;;
14778;SDS011;7481;53.750;10.570;2022-10-18T17:29:19;5.13;;;1.80;;
14778;SDS011;7481;53.750;10.570;2022-10-18T17:32:06;4.93;;;1.80;;
14778;SDS011;7481;53.750;10.570;2022-10-18T17:34:53;6.23;;;2.07;;
14778;SDS011;7481;53.750;10.570;2022-10-18T17:37:40;6.17;;;1.87;;
14778;SDS011;7481;53.750;10.570;2022-10-18T17:40:31;8.00;;;2.00;;
14778;SDS011;7481;53.750;10.570;2022-10-18T17:43:19;10.53;;;2.03;;
14778;SDS011;7481;53.750;10.570;2022-10-18T17:46:06;5.20;;;1.57;;
14778;SDS011;7481;53.750;10.570;2022-10-18T17:48:53;9.03;;;2.50;;
14778;SDS011;7481;53.750;10.570;2022-10-18T17:51:40;9.90;;;2.17;;
14778;SDS011;7481;53.750;10.570;2022-10-18T17:54:28;8.17;;;2.10;;
14778;SDS011;7481;53.750;10.570;2022-10-18T17:57:15;5.27;;;1.90;;
14778;SDS011;7481;53.750;10.570;2022-10-18T18:00:02;6.67;;;2.00;;
14778;SDS011;7481;53.750;10.570;2022-10-18T18:02:55;7.73;;;2.03;;
14778;SDS011;7481;53.750;10.570;2022-10-18T18:05:43;8.73;;;2.13;;
14778;SDS011;7481;53.750;10.570;2022-10-18T18:08:30;6.30;;;1.80;;
14778;SDS011;7481;53.750;10.570;2022-10-18T18:11:17;7.30;;;2.20;;
14778;SDS011;7481;53.750;10.570;2022-10-18T18:14:04;7.67;;;2.40;;
14778;SDS011;7481;53.750;10.570;2022-10-18T18:16:55;5.93;;;2.00;;
14778;SDS011;7481;53.750;10.570;2022-10-18T18:19:42;6.43;;;2.10;;
14778;SDS011;7481;53.750;10.570;2022-10-18T18:22:29;5.27;;;1.80;;
14778;SDS011;7481;53.750;10.570;2022-10-18T18:25:16;6.37;;;1.93;;
14778;SDS011;7481;53.750;10.570;2022-10-18T18:28:03;5.40;;;1.90;;
14778;SDS011;7481;53.750;10.570;2022-10-18T18:30:53;5.13;;;1.60;;
14778;SDS011;7481;53.750;10.570;2022-10-18T18:33:40;8.80;;;2.50;;
14778;SDS011;7481;53.750;10.570;2022-10-18T18:36:28;5.40;;;1.90;;
14778;SDS011;7481;53.750;10.570;2022-10-18T18:39:19;5.70;;;2.03;;
14778;SDS011;7481;53.750;10.570;2022-10-18T18:42:08;5.17;;;1.40;;
14778;SDS011;7481;53.750;10.570;2022-10-18T18:44:56;3.20;;;1.40;;
14778;SDS011;7481;53.750;10.570;2022-10-18T18:47:43;2.43;;;1.60;;
14778;SDS011;7481;53.750;10.570;2022-10-18T18:50:30;3.67;;;1.40;;
14778;SDS011;7481;53.750;10.570;2022-10-18T18:53:17;2.37;;;1.50;;
14778;SDS011;7481;53.750;10.570;2022-10-18T18:56:08;3.43;;;1.40;;
14778;SDS011;7481;53.750;10.570;2022-10-18T18:58:57;5.37;;;1.50;;
14778;SDS011;7481;53.750;10.570;2022-10-18T19:01:45;4.63;;;1.20;;
14778;SDS011;7481;53.750;10.570;2022-10-18T19:04:32;6.43;;;1.33;;
14778;SDS011;7481;53.750;10.570;2022-10-18T19:07:20;4.23;;;1.30;;
14778;SDS011;7481;53.750;10.570;2022-10-18T19:10:07;4.63;;;1.50;;
14778;SDS011;7481;53.750;10.570;2022-10-18T19:12:54;3.70;;;1.53;;
14778;SDS011;7481;53.750;10.570;2022-10-18T19:15:42;3.93;;;1.47;;
14778;SDS011;7481;53.750;10.570;2022-10-18T19:18:29;2.13;;;1.03;;
14778;SDS011;7481;53.750;10.570;2022-10-18T19:21:16;7.43;;;1.70;;